sensor_id;sensor_type;location;lat;lon;timestamp;pressure;altitude;pressure_sealevel;temperature;humidity
56944;BME280;42848;42.524;12.052;2023-04-08T00:01:09;96479.69;;;8.83;100.00
56944;BME280;42848;42.524;12.052;2023-04-08T00:03:35;96473.81;;;8.81;100.00
56944;BME280;42848;42.524;12.052;2023-04-08T00:06:01;96473.13;;;8.67;100.00
56944;BME280;42848;42.524;12.052;2023-04-08T00:08:27;96468.03;;;8.74;100.00
56944;BME280;42848;42.524;12.052;2023-04-08T00:10:53;96476.69;;;8.94;100.00
56944;BME280;42848;42.524;12.052;2023-04-08T00:13:19;96471.97;;;9.08;100.00
56944;BME280;42848;42.524;12.052;2023-04-08T00:15:45;96476.34;;;8.87;100.00
56944;BME280;42848;42.524;12.052;2023-04-08T00:18:12;96475.97;;;8.62;100.00
56944;BME280;42848;42.524;12.052;2023-04-08T00:20:38;96459.03;;;8.48;100.00
56944;BME280;42848;42.524;12.052;2023-04-08T00:23:03;96452.09;;;8.64;100.00
56944;BME280;42848;42.524;12.052;2023-04-08T00:25:30;96456.13;;;8.84;100.00
56944;BME280;42848;42.524;12.052;2023-04-08T00:27:55;96447.09;;;8.97;100.00
56944;BME280;42848;42.524;12.052;2023-04-08T00:30:21;96441.84;;;8.44;100.00
56944;BME280;42848;42.524;12.052;2023-04-08T00:32:46;96435.47;;;8.40;100.00
56944;BME280;42848;42.524;12.052;2023-04-08T00:35:12;96437.69;;;8.38;100.00
56944;BME280;42848;42.524;12.052;2023-04-08T00:37:38;96444.13;;;8.28;100.00
56944;BME280;42848;42.524;12.052;2023-04-08T00:40:04;96441.97;;;8.39;100.00
56944;BME280;42848;42.524;12.052;2023-04-08T00:42:30;96434.31;;;8.32;100.00
56944;BME280;42848;42.524;12.052;2023-04-08T00:44:55;96429.50;;;8.29;100.00
56944;BME280;42848;42.524;12.052;2023-04-08T00:47:21;96432.22;;;8.29;100.00
56944;BME280;42848;42.524;12.052;2023-04-08T00:49:47;96427.75;;;8.24;100.00
56944;BME280;42848;42.524;12.052;2023-04-08T00:52:12;96434.09;;;8.51;100.00
56944;BME280;42848;42.524;12.052;2023-04-08T00:54:38;96421.03;;;8.53;100.00
56944;BME280;42848;42.524;12.052;2023-04-08T00:57:05;96418.28;;;8.36;100.00
56944;BME280;42848;42.524;12.052;2023-04-08T00:59:31;96414.53;;;8.63;100.00
56944;BME280;42848;42.524;12.052;2023-04-08T01:02:30;96424.44;;;8.84;100.00
56944;BME280;42848;42.524;12.052;2023-04-08T01:05:05;96412.34;;;8.73;100.00
56944;BME280;42848;42.524;12.052;2023-04-08T01:07:41;96416.69;;;8.35;100.00
56944;BME280;42848;42.524;12.052;2023-04-08T01:10:15;96414.91;;;8.78;100.00
56944;BME280;42848;42.524;12.052;2023-04-08T01:12:51;96419.28;;;8.57;100.00
56944;BME280;42848;42.524;12.052;2023-04-08T01:15:17;96412.72;;;8.41;100.00
56944;BME280;42848;42.524;12.052;2023-04-08T01:17:45;96407.22;;;8.23;100.00
56944;BME280;42848;42.524;12.052;2023-04-08T01:20:12;96404.84;;;8.31;100.00
56944;BME280;42848;42.524;12.052;2023-04-08T01:25:22;96382.66;;;8.11;100.00
56944;BME280;42848;42.524;12.052;2023-04-08T01:27:48;96406.28;;;8.76;100.00
56944;BME280;42848;42.524;12.052;2023-04-08T01:30:17;96408.84;;;8.73;100.00
56944;BME280;42848;42.524;12.052;2023-04-08T01:32:44;96405.34;;;8.72;100.00
56944;BME280;42848;42.524;12.052;2023-04-08T01:35:11;96398.00;;;8.24;100.00
56944;BME280;42848;42.524;12.052;2023-04-08T01:37:39;96400.69;;;8.64;100.00
56944;BME280;42848;42.524;12.052;2023-04-08T01:40:07;96411.00;;;8.45;100.00
56944;BME280;42848;42.524;12.052;2023-04-08T01:42:34;96422.75;;;9.06;100.00
56944;BME280;42848;42.524;12.052;2023-04-08T01:45:00;96429.53;;;8.77;100.00
56944;BME280;42848;42.524;12.052;2023-04-08T01:47:28;96414.22;;;8.64;100.00
56944;BME280;42848;42.524;12.052;2023-04-08T01:49:55;96385.34;;;8.03;100.00
56944;BME280;42848;42.524;12.052;2023-04-08T01:52:22;96373.16;;;7.52;100.00
56944;BME280;42848;42.524;12.052;2023-04-08T01:54:48;96382.50;;;7.77;100.00
56944;BME280;42848;42.524;12.052;2023-04-08T01:57:18;96420.38;;;7.85;100.00
56944;BME280;42848;42.524;12.052;2023-04-08T01:59:47;96434.47;;;7.74;100.00
56944;BME280;42848;42.524;12.052;2023-04-08T02:02:16;96422.19;;;7.45;100.00
56944;BME280;42848;42.524;12.052;2023-04-08T02:04:44;96411.41;;;7.45;100.00
56944;BME280;42848;42.524;12.052;2023-04-08T02:07:10;96396.41;;;7.39;100.00
56944;BME280;42848;42.524;12.052;2023-04-08T02:09:38;96397.63;;;7.10;100.00
56944;BME280;42848;42.524;12.052;2023-04-08T02:12:03;96391.31;;;7.15;100.00
56944;BME280;42848;42.524;12.052;2023-04-08T02:14:29;96394.91;;;7.24;100.00
56944;BME280;42848;42.524;12.052;2023-04-08T02:17:03;96392.59;;;7.18;100.00
56944;BME280;42848;42.524;12.052;2023-04-08T02:19:51;96395.84;;;7.06;100.00
56944;BME280;42848;42.524;12.052;2023-04-08T02:25:37;96422.38;;;6.90;100.00
56944;BME280;42848;42.524;12.052;2023-04-08T02:28:06;96433.66;;;6.92;100.00
56944;BME280;42848;42.524;12.052;2023-04-08T02:30:36;96432.78;;;6.83;100.00
56944;BME280;42848;42.524;12.052;2023-04-08T02:33:06;96428.88;;;6.89;100.00
56944;BME280;42848;42.524;12.052;2023-04-08T02:35:34;96434.75;;;6.91;100.00
56944;BME280;42848;42.524;12.052;2023-04-08T02:38:00;96432.56;;;6.93;100.00
56944;BME280;42848;42.524;12.052;2023-04-08T02:40:30;96427.78;;;6.90;100.00
56944;BME280;42848;42.524;12.052;2023-04-08T02:42:57;96438.47;;;6.95;100.00
56944;BME280;42848;42.524;12.052;2023-04-08T02:45:31;96443.19;;;6.76;100.00
56944;BME280;42848;42.524;12.052;2023-04-08T02:48:00;96436.34;;;6.92;100.00
56944;BME280;42848;42.524;12.052;2023-04-08T02:50:26;96423.97;;;6.91;100.00
56944;BME280;42848;42.524;12.052;2023-04-08T02:52:52;96417.66;;;6.60;100.00
56944;BME280;42848;42.524;12.052;2023-04-08T02:55:17;96418.84;;;6.53;100.00
56944;BME280;42848;42.524;12.052;2023-04-08T02:57:46;96424.63;;;6.19;100.00
56944;BME280;42848;42.524;12.052;2023-04-08T03:00:12;96420.63;;;6.17;100.00
56944;BME280;42848;42.524;12.052;2023-04-08T03:02:38;96409.84;;;6.44;100.00
56944;BME280;42848;42.524;12.052;2023-04-08T03:05:04;96406.28;;;6.35;100.00
56944;BME280;42848;42.524;12.052;2023-04-08T03:07:31;96419.03;;;6.16;100.00
56944;BME280;42848;42.524;12.052;2023-04-08T03:09:56;96414.03;;;6.09;100.00
56944;BME280;42848;42.524;12.052;2023-04-08T03:12:22;96424.03;;;6.09;100.00
56944;BME280;42848;42.524;12.052;2023-04-08T03:14:49;96422.44;;;6.21;100.00
56944;BME280;42848;42.524;12.052;2023-04-08T03:17:15;96420.63;;;6.31;100.00
56944;BME280;42848;42.524;12.052;2023-04-08T03:19:41;96415.66;;;6.24;100.00
56944;BME280;42848;42.524;12.052;2023-04-08T03:22:07;96412.63;;;6.12;100.00
56944;BME280;42848;42.524;12.052;2023-04-08T03:24:34;96406.25;;;6.08;100.00
56944;BME280;42848;42.524;12.052;2023-04-08T03:27:01;96401.47;;;6.05;100.00
56944;BME280;42848;42.524;12.052;2023-04-08T03:29:26;96395.91;;;6.15;100.00
56944;BME280;42848;42.524;12.052;2023-04-08T03:31:52;96381.09;;;5.98;100.00
56944;BME280;42848;42.524;12.052;2023-04-08T03:34:18;96386.19;;;6.00;100.00
56944;BME280;42848;42.524;12.052;2023-04-08T03:36:43;96395.19;;;5.95;100.00
56944;BME280;42848;42.524;12.052;2023-04-08T03:39:09;96398.97;;;6.08;100.00
56944;BME280;42848;42.524;12.052;2023-04-08T03:41:35;96402.16;;;5.96;100.00
56944;BME280;42848;42.524;12.052;2023-04-08T03:44:01;96396.28;;;6.08;100.00
56944;BME280;42848;42.524;12.052;2023-04-08T03:46:26;96399.06;;;6.03;100.00
56944;BME280;42848;42.524;12.052;2023-04-08T03:48:52;96384.41;;;5.95;100.00
56944;BME280;42848;42.524;12.052;2023-04-08T03:51:18;96380.31;;;5.98;100.00
56944;BME280;42848;42.524;12.052;2023-04-08T03:53:43;96374.69;;;5.81;100.00
56944;BME280;42848;42.524;12.052;2023-04-08T03:56:09;96376.56;;;5.80;100.00
56944;BME280;42848;42.524;12.052;2023-04-08T03:58:35;96388.59;;;6.02;100.00
56944;BME280;42848;42.524;12.052;2023-04-08T04:01:01;96404.25;;;5.99;100.00
56944;BME280;42848;42.524;12.052;2023-04-08T04:03:26;96402.19;;;6.24;100.00
56944;BME280;42848;42.524;12.052;2023-04-08T04:05:52;96402.75;;;6.48;100.00
56944;BME280;42848;42.524;12.052;2023-04-08T04:08:18;96403.47;;;6.13;100.00
56944;BME280;42848;42.524;12.052;2023-04-08T04:10:44;96410.28;;;6.24;100.00
56944;BME280;42848;42.524;12.052;2023-04-08T04:13:09;96407.47;;;6.15;100.00
56944;BME280;42848;42.524;12.052;2023-04-08T04:15:39;96406.66;;;6.15;100.00
56944;BME280;42848;42.524;12.052;2023-04-08T04:18:05;96401.78;;;6.17;100.00
56944;BME280;42848;42.524;12.052;2023-04-08T04:20:31;96388.41;;;5.98;100.00
56944;BME280;42848;42.524;12.052;2023-04-08T04:22:57;96397.44;;;5.88;100.00
56944;BME280;42848;42.524;12.052;2023-04-08T04:25:23;96397.06;;;6.09;100.00
56944;BME280;42848;42.524;12.052;2023-04-08T04:27:48;96394.88;;;6.11;100.00
56944;BME280;42848;42.524;12.052;2023-04-08T04:30:15;96402.97;;;6.11;100.00
56944;BME280;42848;42.524;12.052;2023-04-08T04:32:41;96401.50;;;6.32;100.00
56944;BME280;42848;42.524;12.052;2023-04-08T04:35:11;96409.38;;;6.42;100.00
56944;BME280;42848;42.524;12.052;2023-04-08T04:37:37;96419.53;;;6.18;100.00
56944;BME280;42848;42.524;12.052;2023-04-08T04:40:04;96415.66;;;6.51;100.00
56944;BME280;42848;42.524;12.052;2023-04-08T04:42:30;96416.25;;;6.21;100.00
56944;BME280;42848;42.524;12.052;2023-04-08T04:44:56;96421.25;;;6.27;100.00
56944;BME280;42848;42.524;12.052;2023-04-08T04:47:22;96407.06;;;5.94;100.00
56944;BME280;42848;42.524;12.052;2023-04-08T04:49:47;96408.75;;;6.04;100.00
56944;BME280;42848;42.524;12.052;2023-04-08T04:52:13;96402.06;;;6.02;100.00
56944;BME280;42848;42.524;12.052;2023-04-08T04:54:39;96394.38;;;5.95;100.00
56944;BME280;42848;42.524;12.052;2023-04-08T04:57:05;96398.63;;;5.82;100.00
56944;BME280;42848;42.524;12.052;2023-04-08T04:59:30;96392.75;;;5.94;100.00
56944;BME280;42848;42.524;12.052;2023-04-08T05:01:56;96388.88;;;6.00;100.00
56944;BME280;42848;42.524;12.052;2023-04-08T05:04:23;96391.25;;;5.88;100.00
56944;BME280;42848;42.524;12.052;2023-04-08T05:06:48;96401.69;;;5.94;100.00
56944;BME280;42848;42.524;12.052;2023-04-08T05:09:14;96407.63;;;5.91;100.00
56944;BME280;42848;42.524;12.052;2023-04-08T05:11:40;96411.34;;;5.95;100.00
56944;BME280;42848;42.524;12.052;2023-04-08T05:14:06;96416.84;;;6.45;100.00
56944;BME280;42848;42.524;12.052;2023-04-08T05:16:32;96412.34;;;5.99;100.00
56944;BME280;42848;42.524;12.052;2023-04-08T05:18:58;96407.25;;;6.12;100.00
56944;BME280;42848;42.524;12.052;2023-04-08T05:21:24;96420.44;;;6.27;100.00
56944;BME280;42848;42.524;12.052;2023-04-08T05:23:50;96422.66;;;6.25;100.00
56944;BME280;42848;42.524;12.052;2023-04-08T05:26:18;96426.56;;;5.86;100.00
56944;BME280;42848;42.524;12.052;2023-04-08T05:28:46;96407.00;;;5.81;100.00
56944;BME280;42848;42.524;12.052;2023-04-08T05:31:14;96387.03;;;5.68;100.00
56944;BME280;42848;42.524;12.052;2023-04-08T05:33:40;96368.38;;;5.71;100.00
56944;BME280;42848;42.524;12.052;2023-04-08T05:36:06;96364.53;;;5.91;100.00
56944;BME280;42848;42.524;12.052;2023-04-08T05:38:32;96365.09;;;5.75;100.00
56944;BME280;42848;42.524;12.052;2023-04-08T05:40:58;96354.13;;;5.85;100.00
56944;BME280;42848;42.524;12.052;2023-04-08T05:43:23;96346.88;;;5.85;100.00
56944;BME280;42848;42.524;12.052;2023-04-08T05:45:49;96341.16;;;5.59;100.00
56944;BME280;42848;42.524;12.052;2023-04-08T05:48:15;96334.78;;;5.69;100.00
56944;BME280;42848;42.524;12.052;2023-04-08T05:50:41;96336.56;;;5.60;100.00
56944;BME280;42848;42.524;12.052;2023-04-08T05:53:08;96343.22;;;5.49;100.00
56944;BME280;42848;42.524;12.052;2023-04-08T05:55:34;96340.00;;;5.47;100.00
56944;BME280;42848;42.524;12.052;2023-04-08T05:58:00;96339.56;;;5.58;100.00
56944;BME280;42848;42.524;12.052;2023-04-08T06:00:25;96349.16;;;5.78;100.00
56944;BME280;42848;42.524;12.052;2023-04-08T06:02:51;96360.81;;;5.87;100.00
56944;BME280;42848;42.524;12.052;2023-04-08T06:05:17;96360.31;;;5.85;100.00
56944;BME280;42848;42.524;12.052;2023-04-08T06:07:43;96363.34;;;6.11;100.00
56944;BME280;42848;42.524;12.052;2023-04-08T06:10:09;96369.47;;;5.84;100.00
56944;BME280;42848;42.524;12.052;2023-04-08T06:12:36;96376.06;;;5.78;100.00
56944;BME280;42848;42.524;12.052;2023-04-08T06:15:05;96384.56;;;5.85;100.00
56944;BME280;42848;42.524;12.052;2023-04-08T06:17:31;96396.59;;;5.74;100.00
56944;BME280;42848;42.524;12.052;2023-04-08T06:19:57;96401.25;;;6.01;100.00
56944;BME280;42848;42.524;12.052;2023-04-08T06:22:22;96414.25;;;6.13;100.00
56944;BME280;42848;42.524;12.052;2023-04-08T06:24:48;96404.47;;;6.17;100.00
56944;BME280;42848;42.524;12.052;2023-04-08T06:27:14;96406.47;;;5.97;100.00
56944;BME280;42848;42.524;12.052;2023-04-08T06:29:40;96402.25;;;5.91;100.00
56944;BME280;42848;42.524;12.052;2023-04-08T06:32:06;96393.53;;;5.81;100.00
56944;BME280;42848;42.524;12.052;2023-04-08T06:34:31;96386.25;;;5.81;100.00
56944;BME280;42848;42.524;12.052;2023-04-08T06:36:57;96395.00;;;6.06;100.00
56944;BME280;42848;42.524;12.052;2023-04-08T06:39:23;96395.09;;;6.28;100.00
56944;BME280;42848;42.524;12.052;2023-04-08T06:41:48;96388.91;;;6.14;100.00
56944;BME280;42848;42.524;12.052;2023-04-08T06:44:15;96388.50;;;6.07;100.00
56944;BME280;42848;42.524;12.052;2023-04-08T06:46:41;96397.19;;;6.04;100.00
56944;BME280;42848;42.524;12.052;2023-04-08T06:49:06;96387.09;;;5.95;100.00
56944;BME280;42848;42.524;12.052;2023-04-08T06:51:32;96395.56;;;6.03;100.00
56944;BME280;42848;42.524;12.052;2023-04-08T06:53:58;96388.91;;;6.14;100.00
56944;BME280;42848;42.524;12.052;2023-04-08T06:56:23;96395.00;;;6.06;100.00
56944;BME280;42848;42.524;12.052;2023-04-08T06:58:51;96395.28;;;6.18;100.00
56944;BME280;42848;42.524;12.052;2023-04-08T07:01:17;96401.06;;;5.97;100.00
56944;BME280;42848;42.524;12.052;2023-04-08T07:03:43;96398.31;;;5.84;100.00
56944;BME280;42848;42.524;12.052;2023-04-08T07:06:08;96395.47;;;5.94;100.00
56944;BME280;42848;42.524;12.052;2023-04-08T07:08:34;96401.25;;;6.01;100.00
56944;BME280;42848;42.524;12.052;2023-04-08T07:11:00;96401.16;;;6.20;100.00
56944;BME280;42848;42.524;12.052;2023-04-08T07:13:26;96401.16;;;5.92;100.00
56944;BME280;42848;42.524;12.052;2023-04-08T07:15:52;96405.44;;;5.93;100.00
56944;BME280;42848;42.524;12.052;2023-04-08T07:18:18;96399.78;;;6.09;100.00
56944;BME280;42848;42.524;12.052;2023-04-08T07:20:49;96406.03;;;5.90;100.00
56944;BME280;42848;42.524;12.052;2023-04-08T07:23:15;96406.53;;;5.92;100.00
56944;BME280;42848;42.524;12.052;2023-04-08T07:25:41;96403.34;;;5.90;100.00
56944;BME280;42848;42.524;12.052;2023-04-08T07:28:06;96404.06;;;5.96;100.00
56944;BME280;42848;42.524;12.052;2023-04-08T07:30:32;96413.78;;;5.78;100.00
56944;BME280;42848;42.524;12.052;2023-04-08T07:32:58;96413.00;;;5.78;100.00
56944;BME280;42848;42.524;12.052;2023-04-08T07:35:23;96404.56;;;6.12;100.00
56944;BME280;42848;42.524;12.052;2023-04-08T07:37:50;96408.94;;;6.21;100.00
56944;BME280;42848;42.524;12.052;2023-04-08T07:40:17;96407.25;;;6.12;100.00
56944;BME280;42848;42.524;12.052;2023-04-08T07:42:43;96404.44;;;6.03;100.00
56944;BME280;42848;42.524;12.052;2023-04-08T07:45:09;96418.41;;;5.91;100.00
56944;BME280;42848;42.524;12.052;2023-04-08T07:47:35;96423.53;;;6.07;100.00
56944;BME280;42848;42.524;12.052;2023-04-08T07:50:02;96422.25;;;6.04;100.00
56944;BME280;42848;42.524;12.052;2023-04-08T07:52:30;96424.53;;;6.11;100.00
56944;BME280;42848;42.524;12.052;2023-04-08T07:54:56;96424.63;;;6.06;100.00
56944;BME280;42848;42.524;12.052;2023-04-08T07:57:22;96428.63;;;6.08;100.00
56944;BME280;42848;42.524;12.052;2023-04-08T07:59:47;96425.84;;;6.27;100.00
56944;BME280;42848;42.524;12.052;2023-04-08T08:02:13;96426.03;;;6.17;100.00
56944;BME280;42848;42.524;12.052;2023-04-08T08:04:39;96438.72;;;6.44;100.00
56944;BME280;42848;42.524;12.052;2023-04-08T08:07:04;96440.03;;;6.33;100.00
56944;BME280;42848;42.524;12.052;2023-04-08T08:09:30;96444.00;;;6.35;100.00
56944;BME280;42848;42.524;12.052;2023-04-08T08:11:56;96441.41;;;6.30;100.00
56944;BME280;42848;42.524;12.052;2023-04-08T08:14:21;96444.00;;;6.21;100.00
56944;BME280;42848;42.524;12.052;2023-04-08T08:16:47;96445.63;;;6.22;100.00
56944;BME280;42848;42.524;12.052;2023-04-08T08:19:13;96449.31;;;6.40;100.00
56944;BME280;42848;42.524;12.052;2023-04-08T08:21:40;96451.09;;;6.45;100.00
56944;BME280;42848;42.524;12.052;2023-04-08T08:24:06;96443.81;;;6.45;100.00
56944;BME280;42848;42.524;12.052;2023-04-08T08:26:34;96455.38;;;6.73;100.00
56944;BME280;42848;42.524;12.052;2023-04-08T08:29:01;96449.22;;;6.59;100.00
56944;BME280;42848;42.524;12.052;2023-04-08T08:31:27;96446.41;;;6.50;100.00
56944;BME280;42848;42.524;12.052;2023-04-08T08:33:52;96446.28;;;6.55;100.00
56944;BME280;42848;42.524;12.052;2023-04-08T08:36:18;96461.00;;;6.49;100.00
56944;BME280;42848;42.524;12.052;2023-04-08T08:38:43;96462.59;;;6.50;100.00
56944;BME280;42848;42.524;12.052;2023-04-08T08:41:09;96465.00;;;6.52;100.00
56944;BME280;42848;42.524;12.052;2023-04-08T08:43:36;96466.78;;;6.56;100.00
56944;BME280;42848;42.524;12.052;2023-04-08T08:46:02;96468.38;;;6.57;100.00
56944;BME280;42848;42.524;12.052;2023-04-08T08:48:28;96466.78;;;6.56;100.00
56944;BME280;42848;42.524;12.052;2023-04-08T08:50:54;96475.97;;;6.55;100.00
56944;BME280;42848;42.524;12.052;2023-04-08T08:53:20;96476.38;;;6.63;100.00
56944;BME280;42848;42.524;12.052;2023-04-08T08:55:47;96481.06;;;6.71;100.00
56944;BME280;42848;42.524;12.052;2023-04-08T08:58:13;96475.75;;;6.66;100.00
56944;BME280;42848;42.524;12.052;2023-04-08T09:00:40;96475.19;;;6.69;100.00
56944;BME280;42848;42.524;12.052;2023-04-08T09:03:19;96488.34;;;6.84;100.00
56944;BME280;42848;42.524;12.052;2023-04-08T09:06:01;96479.66;;;6.60;100.00
56944;BME280;42848;42.524;12.052;2023-04-08T09:08:35;96480.94;;;6.76;100.00
56944;BME280;42848;42.524;12.052;2023-04-08T09:11:15;96485.94;;;6.82;100.00
56944;BME280;42848;42.524;12.052;2023-04-08T09:13:42;96492.03;;;6.88;100.00
56944;BME280;42848;42.524;12.052;2023-04-08T09:16:10;96481.94;;;6.94;100.00
56944;BME280;42848;42.524;12.052;2023-04-08T09:18:36;96484.50;;;7.12;100.00
56944;BME280;42848;42.524;12.052;2023-04-08T09:21:03;96480.72;;;7.13;100.00
56944;BME280;42848;42.524;12.052;2023-04-08T09:23:49;96483.78;;;7.21;100.00
56944;BME280;42848;42.524;12.052;2023-04-08T09:26:20;96478.28;;;7.26;100.00
56944;BME280;42848;42.524;12.052;2023-04-08T09:29:01;96486.88;;;7.28;100.00
56944;BME280;42848;42.524;12.052;2023-04-08T09:31:35;96492.66;;;7.35;100.00
56944;BME280;42848;42.524;12.052;2023-04-08T09:34:12;96490.97;;;7.25;100.00
56944;BME280;42848;42.524;12.052;2023-04-08T09:36:38;96494.63;;;7.43;100.00
56944;BME280;42848;42.524;12.052;2023-04-08T09:39:04;96489.78;;;7.54;100.00
56944;BME280;42848;42.524;12.052;2023-04-08T09:41:33;96491.56;;;7.58;100.00
56944;BME280;42848;42.524;12.052;2023-04-08T09:44:02;96495.38;;;7.57;100.00
56944;BME280;42848;42.524;12.052;2023-04-08T09:46:46;96492.69;;;7.80;100.00
56944;BME280;42848;42.524;12.052;2023-04-08T09:49:22;96494.09;;;7.99;100.00
56944;BME280;42848;42.524;12.052;2023-04-08T09:57:24;96491.00;;;8.15;100.00
56944;BME280;42848;42.524;12.052;2023-04-08T10:00:03;96491.59;;;8.34;100.00
56944;BME280;42848;42.524;12.052;2023-04-08T10:02:39;96485.81;;;7.96;100.00
56944;BME280;42848;42.524;12.052;2023-04-08T10:05:06;96492.19;;;8.00;100.00
56944;BME280;42848;42.524;12.052;2023-04-08T10:07:34;96486.94;;;8.04;100.00
56944;BME280;42848;42.524;12.052;2023-04-08T10:10:00;96490.69;;;8.16;100.00
56944;BME280;42848;42.524;12.052;2023-04-08T10:12:26;96496.63;;;8.27;100.00
56944;BME280;42848;42.524;12.052;2023-04-08T10:15:30;96488.78;;;8.17;100.00
56944;BME280;42848;42.524;12.052;2023-04-08T10:20:46;96489.53;;;8.09;100.00
56944;BME280;42848;42.524;12.052;2023-04-08T10:23:17;96496.94;;;8.25;100.00
56944;BME280;42848;42.524;12.052;2023-04-08T10:25:46;96493.63;;;8.28;100.00
56944;BME280;42848;42.524;12.052;2023-04-08T10:30:47;96505.91;;;8.12;100.00
56944;BME280;42848;42.524;12.052;2023-04-08T10:33:17;96500.25;;;8.22;100.00
56944;BME280;42848;42.524;12.052;2023-04-08T10:35:47;96501.97;;;8.41;100.00
56944;BME280;42848;42.524;12.052;2023-04-08T10:38:15;96491.38;;;8.53;100.00
56944;BME280;42848;42.524;12.052;2023-04-08T10:40:42;96497.00;;;8.65;100.00
56944;BME280;42848;42.524;12.052;2023-04-08T10:43:10;96490.75;;;8.56;100.00
56944;BME280;42848;42.524;12.052;2023-04-08T10:45:37;96491.38;;;8.53;100.00
56944;BME280;42848;42.524;12.052;2023-04-08T10:48:22;96485.53;;;8.68;100.00
56944;BME280;42848;42.524;12.052;2023-04-08T10:51:00;96488.09;;;8.73;100.00
56944;BME280;42848;42.524;12.052;2023-04-08T10:53:34;96473.56;;;9.09;100.00
56944;BME280;42848;42.524;12.052;2023-04-08T10:58:31;96485.53;;;9.25;100.00
56944;BME280;42848;42.524;12.052;2023-04-08T11:01:05;96479.44;;;9.11;100.00
56944;BME280;42848;42.524;12.052;2023-04-08T11:03:32;96474.25;;;8.75;100.00
56944;BME280;42848;42.524;12.052;2023-04-08T11:05:59;96472.28;;;9.06;100.00
56944;BME280;42848;42.524;12.052;2023-04-08T11:08:29;96465.91;;;9.11;100.00
56944;BME280;42848;42.524;12.052;2023-04-08T11:10:55;96478.19;;;9.17;100.00
56944;BME280;42848;42.524;12.052;2023-04-08T11:13:21;96471.66;;;9.18;100.00
56944;BME280;42848;42.524;12.052;2023-04-08T11:15:48;96468.78;;;9.23;100.00
56944;BME280;42848;42.524;12.052;2023-04-08T11:18:15;96469.91;;;9.22;100.00
56944;BME280;42848;42.524;12.052;2023-04-08T11:20:43;96469.75;;;9.27;100.00
56944;BME280;42848;42.524;12.052;2023-04-08T11:23:12;96479.50;;;9.63;100.00
56944;BME280;42848;42.524;12.052;2023-04-08T11:25:40;96476.59;;;9.68;100.00
56944;BME280;42848;42.524;12.052;2023-04-08T11:28:06;96477.41;;;9.77;100.00
56944;BME280;42848;42.524;12.052;2023-04-08T11:30:33;96474.06;;;9.72;100.00
56944;BME280;42848;42.524;12.052;2023-04-08T11:32:58;96474.22;;;9.49;100.00
56944;BME280;42848;42.524;12.052;2023-04-08T11:35:28;96472.31;;;9.58;100.00
56944;BME280;42848;42.524;12.052;2023-04-08T11:37:57;96472.81;;;9.60;100.00
56944;BME280;42848;42.524;12.052;2023-04-08T11:40:23;96467.84;;;9.54;100.00
56944;BME280;42848;42.524;12.052;2023-04-08T11:42:52;96469.91;;;9.48;100.00
56944;BME280;42848;42.524;12.052;2023-04-08T11:45:19;96463.22;;;9.63;100.00
56944;BME280;42848;42.524;12.052;2023-04-08T11:47:46;96467.19;;;9.74;100.00
56944;BME280;42848;42.524;12.052;2023-04-08T11:50:22;96467.53;;;9.81;100.00
56944;BME280;42848;42.524;12.052;2023-04-08T11:52:49;96465.28;;;9.83;100.00
56944;BME280;42848;42.524;12.052;2023-04-08T11:55:31;96467.06;;;9.79;100.00
56944;BME280;42848;42.524;12.052;2023-04-08T11:58:02;96466.19;;;10.22;100.00
56944;BME280;42848;42.524;12.052;2023-04-08T12:00:29;96466.00;;;10.18;100.00
56944;BME280;42848;42.524;12.052;2023-04-08T12:02:55;96463.00;;;10.03;100.00
56944;BME280;42848;42.524;12.052;2023-04-08T12:05:21;96468.06;;;10.21;100.00
56944;BME280;42848;42.524;12.052;2023-04-08T12:07:46;96467.66;;;9.93;100.00
56944;BME280;42848;42.524;12.052;2023-04-08T12:10:12;96459.38;;;9.90;100.00
56944;BME280;42848;42.524;12.052;2023-04-08T12:12:38;96456.81;;;9.85;100.00
56944;BME280;42848;42.524;12.052;2023-04-08T12:15:06;96450.59;;;9.84;100.00
56944;BME280;42848;42.524;12.052;2023-04-08T12:17:32;96445.56;;;10.21;100.00
56944;BME280;42848;42.524;12.052;2023-04-08T12:19:58;96450.56;;;10.10;100.00
56944;BME280;42848;42.524;12.052;2023-04-08T12:22:24;96446.66;;;10.37;100.00
56944;BME280;42848;42.524;12.052;2023-04-08T12:24:50;96450.81;;;10.43;100.00
56944;BME280;42848;42.524;12.052;2023-04-08T12:27:16;96450.56;;;10.02;100.00
56944;BME280;42848;42.524;12.052;2023-04-08T12:29:41;96443.19;;;10.28;100.00
56944;BME280;42848;42.524;12.052;2023-04-08T12:32:08;96430.97;;;10.51;100.00
56944;BME280;42848;42.524;12.052;2023-04-08T12:34:33;96424.66;;;10.30;100.00
56944;BME280;42848;42.524;12.052;2023-04-08T12:36:59;96416.53;;;10.60;100.00
56944;BME280;42848;42.524;12.052;2023-04-08T12:39:25;96436.75;;;10.41;100.00
56944;BME280;42848;42.524;12.052;2023-04-08T12:41:51;96438.53;;;10.37;100.00
56944;BME280;42848;42.524;12.052;2023-04-08T12:44:17;96429.00;;;10.14;100.00
56944;BME280;42848;42.524;12.052;2023-04-08T12:46:43;96426.16;;;10.02;100.00
56944;BME280;42848;42.524;12.052;2023-04-08T12:49:09;96428.03;;;10.65;100.00
56944;BME280;42848;42.524;12.052;2023-04-08T12:51:35;96435.19;;;10.32;100.00
56944;BME280;42848;42.524;12.052;2023-04-08T12:54:01;96410.19;;;10.56;100.00
56944;BME280;42848;42.524;12.052;2023-04-08T12:56:29;96413.75;;;10.77;100.00
56944;BME280;42848;42.524;12.052;2023-04-08T12:58:54;96415.28;;;10.87;100.00
56944;BME280;42848;42.524;12.052;2023-04-08T13:01:22;96417.84;;;10.62;100.00
56944;BME280;42848;42.524;12.052;2023-04-08T13:03:47;96414.00;;;10.63;100.00
56944;BME280;42848;42.524;12.052;2023-04-08T13:06:13;96413.06;;;10.89;100.00
56944;BME280;42848;42.524;12.052;2023-04-08T13:08:39;96408.59;;;10.84;100.00
56944;BME280;42848;42.524;12.052;2023-04-08T13:11:06;96407.25;;;10.99;100.00